Time;durP1;ratioP1;P1;durP2;ratioP2;P2;SDS_P1;SDS_P2;PMS_P1;PMS_P2;Temp;Humidity;BMP_temperature;BMP_pressure;BME280_temperature;BME280_humidity;BME280_pressure;Samples;Min_cycle;Max_cycle;Signal;HPM_P1;HPM_P2
2023/10/04 00:00:41;;;;;;;10.73;4.77;;;;;;;12.61;93.27;101618.06;5027336;28;20317;-75
2023/10/04 00:03:08;;;;;;;9.93;4.50;;;;;;;12.61;92.97;101612.78;5027164;28;20212;-76
2023/10/04 00:05:36;;;;;;;10.30;4.10;;;;;;;12.60;92.74;101619.97;5035803;28;20197;-74
2023/10/04 00:08:04;;;;;;;9.03;4.40;;;;;;;12.59;92.76;101612.31;5026209;28;20208;-75
2023/10/04 00:10:30;;;;;;;11.37;4.50;;;;;;;12.55;92.57;101612.19;5025243;28;20239;-75
2023/10/04 00:12:59;;;;;;;10.30;3.87;;;;;;;12.53;92.06;101624.19;5043029;28;20197;-75
2023/10/04 00:15:27;;;;;;;9.33;3.60;;;;;;;12.48;92.42;101608.44;5049852;28;20241;-75
2023/10/04 00:17:54;;;;;;;10.17;3.97;;;;;;;12.43;92.14;101612.00;5030278;28;20222;-73
2023/10/04 00:20:22;;;;;;;9.13;3.40;;;;;;;12.38;92.23;101606.88;5029221;28;20224;-74
2023/10/04 00:22:49;;;;;;;9.63;3.50;;;;;;;12.30;92.03;101606.88;5025400;28;20207;-74
2023/10/04 00:25:20;;;;;;;9.27;3.27;;;;;;;12.25;92.20;101604.38;5029828;28;20859;-75
2023/10/04 00:27:48;;;;;;;9.43;3.17;;;;;;;12.22;92.28;101610.31;5046570;28;20582;-76
2023/10/04 00:30:17;;;;;;;8.53;3.07;;;;;;;12.18;91.87;101602.22;5031692;28;20221;-75
2023/10/04 00:32:46;;;;;;;12.13;2.83;;;;;;;12.13;92.53;101599.72;5026034;28;20199;-75
2023/10/04 00:35:15;;;;;;;5.13;2.77;;;;;;;12.10;92.52;101604.81;5029632;28;20208;-75
2023/10/04 00:37:47;;;;;;;12.83;3.10;;;;;;;12.06;92.47;101611.84;5043125;28;20279;-75
2023/10/04 00:40:21;;;;;;;14.53;3.40;;;;;;;12.00;92.64;101611.22;5039235;28;20211;-75
2023/10/04 00:42:49;;;;;;;7.37;2.83;;;;;;;11.99;92.77;101614.16;5024969;28;20223;-75
2023/10/04 00:45:22;;;;;;;7.70;3.40;;;;;;;11.95;92.51;101618.53;5040210;28;20187;-76
2023/10/04 00:47:53;;;;;;;7.67;2.83;;;;;;;11.90;92.74;101610.75;5020778;28;20624;-75
2023/10/04 00:50:26;;;;;;;6.87;2.83;;;;;;;11.87;93.03;101614.78;5052668;28;20220;-75
2023/10/04 00:52:57;;;;;;;12.13;3.40;;;;;;;11.84;92.26;101612.75;5040559;28;20680;-75
2023/10/04 00:55:24;;;;;;;5.37;2.87;;;;;;;11.79;92.70;101607.59;5044818;28;20225;-75
2023/10/04 00:57:54;;;;;;;6.23;2.43;;;;;;;11.79;93.17;101612.09;5025993;28;20212;-75
2023/10/04 01:00:22;;;;;;;7.80;2.43;;;;;;;11.74;93.20;101622.84;5026538;28;20230;-75
2023/10/04 01:02:49;;;;;;;5.77;2.80;;;;;;;11.70;92.72;101606.03;5041358;28;20213;-74
2023/10/04 01:05:17;;;;;;;10.30;2.97;;;;;;;11.69;92.92;101615.06;5044688;28;20199;-74
2023/10/04 01:07:46;;;;;;;6.43;2.50;;;;;;;11.67;92.25;101617.22;5044750;28;20531;-74
2023/10/04 01:10:15;;;;;;;6.60;2.33;;;;;;;11.63;92.31;101619.69;5025672;28;20472;-74
2023/10/04 01:12:44;;;;;;;8.57;3.07;;;;;;;11.60;92.57;101619.53;5049888;28;20841;-75
2023/10/04 01:15:28;;;;;;;8.10;2.53;;;;;;;11.57;92.39;101620.88;5046907;28;20227;-74
2023/10/04 01:17:57;;;;;;;14.27;3.10;;;;;;;11.54;93.05;101618.84;5031968;28;20302;-74
2023/10/04 01:20:24;;;;;;;10.43;3.07;;;;;;;11.54;92.58;101618.84;5045606;28;20585;-74
2023/10/04 01:22:52;;;;;;;6.83;2.70;;;;;;;11.52;93.16;101614.94;5049475;28;20206;-74
2023/10/04 01:25:19;;;;;;;6.07;2.30;;;;;;;11.48;92.65;101617.44;5035806;28;20204;-74
2023/10/04 01:27:45;;;;;;;4.77;2.43;;;;;;;11.46;92.58;101616.19;5048587;28;20261;-74
2023/10/04 01:30:13;;;;;;;7.77;2.70;;;;;;;11.43;92.78;101614.91;5031557;28;20230;-76
2023/10/04 01:32:39;;;;;;;10.57;3.03;;;;;;;11.41;93.14;101613.66;5042713;28;20208;-75
2023/10/04 01:35:08;;;;;;;4.77;2.40;;;;;;;11.40;91.91;101612.09;5042532;28;20220;-75
2023/10/04 01:37:38;;;;;;;10.97;2.93;;;;;;;11.35;92.39;101615.69;5029039;28;20214;-76
2023/10/04 01:40:12;;;;;;;5.03;2.47;;;;;;;11.36;92.62;101621.72;5051809;28;20690;-76
2023/10/04 01:42:40;;;;;;;11.87;2.40;;;;;;;11.34;92.72;101632.59;5044498;28;20277;-75
2023/10/04 01:45:11;;;;;;;4.03;2.50;;;;;;;11.32;93.09;101628.72;5048199;22;20278;-75
2023/10/04 01:47:38;;;;;;;6.60;3.07;;;;;;;11.30;92.25;101620.31;5066825;28;20247;-74
2023/10/04 01:50:06;;;;;;;5.20;2.53;;;;;;;11.28;92.26;101622.50;5074999;28;20249;-76
2023/10/04 01:52:33;;;;;;;10.50;2.80;;;;;;;11.27;92.69;101619.06;5061499;28;20197;-74
2023/10/04 01:55:00;;;;;;;4.87;2.80;;;;;;;11.26;92.87;101624.63;5046721;28;21161;-74
2023/10/04 01:57:29;;;;;;;7.30;2.57;;;;;;;11.23;92.96;101619.97;5062610;28;20218;-75
2023/10/04 01:59:55;;;;;;;6.33;2.50;;;;;;;11.22;92.76;101626.31;5064779;28;20721;-75
2023/10/04 02:02:24;;;;;;;6.50;2.50;;;;;;;11.19;92.33;101625.06;5044342;28;20205;-74
2023/10/04 02:04:53;;;;;;;7.20;2.50;;;;;;;11.17;92.70;101623.81;5045081;28;20200;-74
2023/10/04 02:07:23;;;;;;;9.77;3.00;;;;;;;11.15;93.21;101621.50;5064838;28;20205;-74
2023/10/04 02:09:51;;;;;;;8.80;3.30;;;;;;;11.14;93.09;101621.78;5051646;28;20630;-74
2023/10/04 02:12:18;;;;;;;5.90;2.70;;;;;;;11.12;93.18;101622.09;5050731;28;20666;-74
2023/10/04 02:14:47;;;;;;;5.07;2.50;;;;;;;11.10;92.41;101623.47;5047344;28;20217;-74
2023/10/04 02:17:16;;;;;;;5.83;2.60;;;;;;;11.06;93.48;101631.22;5065403;28;20205;-74
2023/10/04 02:19:43;;;;;;;7.50;3.07;;;;;;;11.04;93.43;101627.31;5067314;28;21214;-74
2023/10/04 02:22:12;;;;;;;7.63;3.00;;;;;;;11.02;93.39;101624.97;5046783;28;20221;-75
2023/10/04 02:24:39;;;;;;;8.27;2.87;;;;;;;11.01;93.89;101628.72;5050106;28;20206;-75
2023/10/04 02:27:07;;;;;;;7.20;3.03;;;;;;;11.01;93.15;101625.28;5066523;28;20205;-75
2023/10/04 02:29:35;;;;;;;9.80;3.10;;;;;;;10.99;93.29;101622.97;5065078;28;20580;-75
2023/10/04 02:32:08;;;;;;;12.93;3.10;;;;;;;10.98;93.53;101620.63;5047920;28;20564;-74
2023/10/04 02:34:35;;;;;;;6.93;3.57;;;;;;;10.97;93.74;101627.00;5060821;28;20228;-75
2023/10/04 02:37:06;;;;;;;14.33;3.40;;;;;;;10.94;93.98;101630.22;5046230;28;20688;-75
2023/10/04 02:39:36;;;;;;;8.50;3.47;;;;;;;10.91;93.96;101636.09;5064581;28;21183;-75
2023/10/04 02:42:09;;;;;;;8.27;3.80;;;;;;;10.90;93.77;101642.47;5050655;28;20199;-74
2023/10/04 02:44:37;;;;;;;7.83;3.47;;;;;;;10.89;93.38;101651.47;5064616;28;20198;-74
2023/10/04 02:47:07;;;;;;;7.80;3.43;;;;;;;10.87;93.74;101651.03;5063783;28;20202;-74
2023/10/04 02:49:35;;;;;;;10.47;3.33;;;;;;;10.85;94.76;101658.44;5048049;28;20229;-74
2023/10/04 02:52:02;;;;;;;9.47;3.40;;;;;;;10.83;94.21;101666.69;5063908;28;20193;-75
2023/10/04 02:54:31;;;;;;;6.80;3.37;;;;;;;10.81;94.74;101660.91;5048577;28;20196;-75
2023/10/04 02:56:58;;;;;;;10.63;3.43;;;;;;;10.79;94.23;101664.94;5063481;28;20200;-74
2023/10/04 02:59:28;;;;;;;10.07;3.33;;;;;;;10.78;94.78;101666.81;5048656;28;20227;-75
2023/10/04 03:01:54;;;;;;;9.90;3.33;;;;;;;10.77;94.54;101667.88;5048982;28;20284;-75
2023/10/04 03:04:22;;;;;;;5.63;3.43;;;;;;;10.77;95.06;101670.50;5047618;28;20726;-75
2023/10/04 03:06:52;;;;;;;8.23;3.93;;;;;;;10.73;95.19;101668.78;5047167;28;20197;-76
2023/10/04 03:09:19;;;;;;;8.87;3.20;;;;;;;10.74;94.95;101667.69;5050026;28;20651;-75
2023/10/04 03:11:45;;;;;;;10.23;3.73;;;;;;;10.71;94.71;101666.44;5048807;28;20205;-75
2023/10/04 03:14:12;;;;;;;6.57;3.93;;;;;;;10.70;94.95;101678.09;5047970;28;20203;-75
2023/10/04 03:16:41;;;;;;;7.07;3.63;;;;;;;10.68;94.89;101679.47;5048837;28;20716;-75
2023/10/04 03:19:07;;;;;;;8.77;3.57;;;;;;;10.66;94.01;101677.13;5064740;28;20256;-75
2023/10/04 03:21:37;;;;;;;7.83;3.70;;;;;;;10.65;93.91;101685.34;5062820;28;20199;-75
2023/10/04 03:24:09;;;;;;;9.10;3.43;;;;;;;10.63;94.63;101683.00;5048115;28;20210;-75
2023/10/04 03:26:36;;;;;;;5.20;3.37;;;;;;;10.64;95.11;101689.06;5060835;28;20238;-75
2023/10/04 03:29:04;;;;;;;13.23;4.20;;;;;;;10.62;94.78;101697.28;5047009;28;20231;-76
2023/10/04 03:31:34;;;;;;;7.17;3.63;;;;;;;10.62;94.78;101684.06;5057515;28;20775;-75
2023/10/04 03:34:02;;;;;;;7.47;3.70;;;;;;;10.62;95.27;101686.72;5050939;28;20767;-77
2023/10/04 03:36:34;;;;;;;9.00;3.87;;;;;;;10.62;95.56;101685.94;5031189;28;20805;-76
2023/10/04 03:39:05;;;;;;;6.57;4.10;;;;;;;10.63;95.12;101690.94;5033136;28;20711;-75
2023/10/04 03:41:33;;;;;;;7.13;3.97;;;;;;;10.62;95.15;101688.59;5047854;28;20212;-75
2023/10/04 03:44:05;;;;;;;7.03;3.97;;;;;;;10.62;96.21;101683.31;5049657;28;20565;-79
2023/10/04 03:46:33;;;;;;;10.37;4.20;;;;;;;10.62;94.92;101688.59;5030002;28;20206;-77
2023/10/04 03:49:01;;;;;;;6.80;4.37;;;;;;;10.61;94.94;101693.06;5030676;28;20640;-75
2023/10/04 03:51:30;;;;;;;7.47;4.47;;;;;;;10.62;95.12;101697.28;5030518;28;20207;-78
2023/10/04 03:54:05;;;;;;;9.23;4.67;;;;;;;10.63;95.25;101690.94;5032314;28;20216;-76
2023/10/04 03:56:33;;;;;;;9.20;3.93;;;;;;;10.63;95.35;101693.56;5043969;28;20841;-75
2023/10/04 03:59:00;;;;;;;8.87;4.43;;;;;;;10.64;94.93;101696.97;5030977;28;20625;-77
2023/10/04 04:01:27;;;;;;;12.43;4.30;;;;;;;10.64;95.23;101679.28;5030065;28;20207;-76
2023/10/04 04:03:53;;;;;;;8.40;4.37;;;;;;;10.63;94.62;101693.56;5028750;28;20205;-77
2023/10/04 04:06:20;;;;;;;9.57;4.57;;;;;;;10.63;95.11;101688.28;5050969;28;20786;-75
2023/10/04 04:08:47;;;;;;;10.80;4.57;;;;;;;10.64;95.84;101691.69;5029353;28;20780;-75
2023/10/04 04:11:14;;;;;;;6.70;4.07;;;;;;;10.65;95.63;101691.41;5048836;28;20304;-75
2023/10/04 04:13:44;;;;;;;12.63;5.30;;;;;;;10.65;95.76;101694.03;5031687;28;20205;-75
2023/10/04 04:16:11;;;;;;;11.03;4.67;;;;;;;10.65;95.16;101694.03;5031212;28;20225;-77
2023/10/04 04:18:38;;;;;;;11.67;4.50;;;;;;;10.64;95.17;101692.50;5046125;28;20206;-75
2023/10/04 04:21:06;;;;;;;8.60;4.53;;;;;;;10.65;95.48;101695.91;5030263;28;20224;-76
2023/10/04 04:23:34;;;;;;;13.90;4.03;;;;;;;10.62;95.14;101694.63;5042929;28;20808;-76
2023/10/04 04:26:05;;;;;;;8.73;4.17;;;;;;;10.63;95.56;101693.56;5030570;28;20812;-75
2023/10/04 04:28:34;;;;;;;10.37;4.20;;;;;;;10.62;95.33;101702.56;5030432;28;20347;-76
2023/10/04 04:31:05;;;;;;;8.83;4.40;;;;;;;10.61;95.39;101706.28;5029676;28;20232;-76
2023/10/04 04:33:32;;;;;;;7.90;4.37;;;;;;;10.60;95.50;101709.22;5027921;28;20208;-76
2023/10/04 04:36:08;;;;;;;11.23;4.20;;;;;;;10.60;94.98;101702.09;5047469;28;21126;-77
2023/10/04 04:38:38;;;;;;;9.50;3.93;;;;;;;10.59;95.69;101702.38;5031143;28;20274;-76
2023/10/04 04:41:12;;;;;;;5.90;3.77;;;;;;;10.58;95.15;101708.75;5042245;28;20227;-76
2023/10/04 04:43:39;;;;;;;11.70;4.47;;;;;;;10.58;95.20;101704.25;5026224;28;20206;-77
2023/10/04 04:46:12;;;;;;;9.17;4.47;;;;;;;10.59;95.30;101705.00;5052130;28;20341;-76
2023/10/04 04:48:39;;;;;;;17.83;4.93;;;;;;;10.58;94.72;101711.38;5035304;28;20667;-76
2023/10/04 04:51:11;;;;;;;13.30;4.57;;;;;;;10.59;95.32;101705.00;5034757;28;20266;-77
2023/10/04 04:53:43;;;;;;;9.37;4.03;;;;;;;10.57;94.85;101705.31;5051627;28;20200;-77
2023/10/04 04:56:14;;;;;;;9.63;4.37;;;;;;;10.58;94.53;101714.81;5031577;28;20220;-76
2023/10/04 04:58:41;;;;;;;9.87;4.30;;;;;;;10.59;94.76;101719.00;5033126;28;20211;-77
2023/10/04 05:01:11;;;;;;;12.70;4.93;;;;;;;10.60;95.29;101727.69;5034813;28;20226;-77
2023/10/04 05:03:41;;;;;;;10.73;4.97;;;;;;;10.62;94.98;101728.22;5034325;28;20201;-76
2023/10/04 05:06:09;;;;;;;16.73;4.77;;;;;;;10.61;94.21;101727.41;5038473;28;20195;-75
2023/10/04 05:08:36;;;;;;;9.07;4.63;;;;;;;10.62;94.48;101725.56;5055395;28;20202;-76
2023/10/04 05:11:06;;;;;;;10.10;4.47;;;;;;;10.62;94.64;101720.28;5053722;28;20668;-77
2023/10/04 05:13:32;;;;;;;7.00;4.33;;;;;;;10.63;94.08;101732.41;5036854;28;20939;-78
2023/10/04 05:16:00;;;;;;;7.87;4.63;;;;;;;10.62;94.24;101725.56;5055727;28;20224;-77
2023/10/04 05:18:32;;;;;;;7.80;4.40;;;;;;;10.64;94.47;101733.97;5055327;28;20207;-75
2023/10/04 05:21:00;;;;;;;11.53;4.53;;;;;;;10.64;94.28;101721.53;5053153;28;20225;-77
2023/10/04 05:23:29;;;;;;;10.83;5.47;;;;;;;10.65;93.80;101717.81;5055762;28;20207;-76
2023/10/04 05:26:12;;;;;;;9.83;4.63;;;;;;;10.65;93.42;101719.66;5044904;28;20188;-76
2023/10/04 05:28:40;;;;;;;7.93;4.80;;;;;;;10.66;93.33;101718.63;5050794;28;20293;-76
2023/10/04 05:31:09;;;;;;;9.93;4.53;;;;;;;10.66;93.23;101722.00;5069606;28;20212;-75
2023/10/04 05:33:46;;;;;;;7.73;4.60;;;;;;;10.67;93.28;101722.81;5067603;28;20652;-76
2023/10/04 05:36:17;;;;;;;11.13;4.80;;;;;;;10.67;93.51;101714.88;5070728;28;20692;-76
2023/10/04 05:38:47;;;;;;;7.77;4.70;;;;;;;10.69;93.93;101720.63;5050233;28;20197;-75
2023/10/04 05:41:15;;;;;;;7.73;4.40;;;;;;;10.69;94.21;101716.16;5068458;28;20291;-76
2023/10/04 05:43:44;;;;;;;11.97;5.03;;;;;;;10.70;93.46;101723.00;5065215;28;20220;-76
2023/10/04 05:46:18;;;;;;;7.50;4.37;;;;;;;10.72;93.74;101718.19;5054332;28;20223;-76
2023/10/04 05:48:51;;;;;;;11.10;4.83;;;;;;;10.74;93.88;101718.69;5053952;28;20261;-76
2023/10/04 05:51:24;;;;;;;8.13;4.57;;;;;;;10.76;93.33;101716.50;5054476;28;20223;-76
2023/10/04 05:53:52;;;;;;;14.27;4.70;;;;;;;10.79;93.65;101723.84;5068788;28;20198;-76
2023/10/04 05:56:24;;;;;;;10.30;4.80;;;;;;;10.83;92.58;101726.66;5051177;28;20241;-76
2023/10/04 05:58:52;;;;;;;12.40;5.30;;;;;;;10.86;92.97;101732.13;5066494;28;20186;-75
2023/10/04 06:01:21;;;;;;;11.73;4.83;;;;;;;10.90;92.84;101748.97;5064565;28;20217;-76
2023/10/04 06:03:55;;;;;;;7.73;5.23;;;;;;;10.94;93.02;101735.94;5047769;28;20197;-75
2023/10/04 06:06:23;;;;;;;9.13;5.00;;;;;;;10.96;93.12;101742.47;5063073;28;20189;-77
2023/10/04 06:08:54;;;;;;;8.80;5.40;;;;;;;11.01;92.69;101744.22;5047862;28;20617;-76
2023/10/04 06:11:24;;;;;;;10.03;5.80;;;;;;;11.04;92.86;101741.78;5045969;28;20299;-75
2023/10/04 06:13:51;;;;;;;12.07;5.53;;;;;;;11.07;93.46;101751.72;5062584;28;20229;-76
2023/10/04 06:16:21;;;;;;;11.63;5.53;;;;;;;11.12;92.51;101746.31;5062420;28;20228;-76
2023/10/04 06:18:51;;;;;;;10.47;5.73;;;;;;;11.18;91.89;101757.56;5059703;28;20267;-75
2023/10/04 06:21:23;;;;;;;10.67;6.07;;;;;;;11.23;92.12;101758.22;5063876;28;20224;-75
2023/10/04 06:23:53;;;;;;;15.93;6.07;;;;;;;11.28;92.18;101758.09;5061642;28;20197;-76
2023/10/04 06:26:22;;;;;;;10.80;6.10;;;;;;;11.34;92.10;101764.06;5045220;28;20316;-77
2023/10/04 06:28:50;;;;;;;12.63;6.50;;;;;;;11.41;91.49;101764.41;5042317;28;20698;-75
2023/10/04 06:31:22;;;;;;;10.00;6.57;;;;;;;11.44;91.45;101775.16;5047930;28;20351;-78
2023/10/04 06:33:54;;;;;;;12.63;6.10;;;;;;;11.52;91.33;101773.66;5050394;28;20278;-78
2023/10/04 06:36:21;;;;;;;13.40;6.13;;;;;;;11.56;91.13;101769.31;5047626;28;20241;-76
2023/10/04 06:38:48;;;;;;;21.17;7.57;;;;;;;11.62;91.16;101776.88;5030725;28;20202;-76
2023/10/04 06:41:14;;;;;;;13.57;7.90;;;;;;;11.67;90.93;101771.44;5031267;28;20696;-76
2023/10/04 06:43:44;;;;;;;13.27;6.97;;;;;;;11.76;89.90;101797.94;5049534;28;20199;-76
2023/10/04 06:46:14;;;;;;;14.17;7.60;;;;;;;11.80;89.83;101790.97;5059972;28;20894;-76
2023/10/04 06:48:46;;;;;;;17.07;7.10;;;;;;;11.88;89.90;101790.22;5043857;28;20225;-76
2023/10/04 06:53:55;;;;;;;13.27;7.33;;;;;;;11.98;89.81;101785.47;5053303;28;20401;-77
2023/10/04 06:56:24;;;;;;;14.20;7.40;;;;;;;12.08;90.00;101795.00;5042196;28;20225;-76
2023/10/04 06:58:53;;;;;;;16.10;7.47;;;;;;;12.15;89.51;101803.25;5059566;28;20261;-76
2023/10/04 07:01:20;;;;;;;14.57;7.90;;;;;;;12.22;89.42;101799.09;5043847;28;20222;-77
2023/10/04 07:03:47;;;;;;;14.00;7.87;;;;;;;12.29;89.01;101796.00;5056108;28;20203;-76
2023/10/04 07:06:22;;;;;;;16.67;7.57;;;;;;;12.39;88.36;101799.16;5058049;28;21349;-76
2023/10/04 07:08:49;;;;;;;14.17;7.40;;;;;;;12.46;89.89;101815.38;5057129;28;20577;-76
2023/10/04 07:11:18;;;;;;;16.97;7.70;;;;;;;12.55;87.00;101808.25;5038701;28;20223;-76
2023/10/04 07:13:46;;;;;;;14.13;7.30;;;;;;;12.63;87.19;101809.34;5058347;28;20196;-76
2023/10/04 07:16:12;;;;;;;10.00;6.50;;;;;;;12.71;87.28;101811.22;5055974;28;20220;-76
2023/10/04 07:18:40;;;;;;;14.33;6.63;;;;;;;12.80;87.26;101827.91;5056004;28;20301;-77
2023/10/04 07:21:12;;;;;;;15.20;7.67;;;;;;;12.90;86.12;101827.63;5041201;28;20228;-76
2023/10/04 07:23:40;;;;;;;14.83;7.23;;;;;;;12.99;86.47;101828.47;5057016;28;20329;-76
2023/10/04 07:26:09;;;;;;;12.17;6.40;;;;;;;13.07;85.69;101831.09;5053793;28;20636;-77
2023/10/04 07:28:41;;;;;;;10.67;6.07;;;;;;;13.16;85.70;101833.75;5038117;28;20205;-77
2023/10/04 07:31:08;;;;;;;11.03;5.63;;;;;;;13.25;85.63;101837.97;5036596;28;20707;-76
2023/10/04 07:33:50;;;;;;;5.80;4.60;;;;;;;13.39;84.40;101840.44;5037712;28;20450;-76
2023/10/04 07:36:29;;;;;;;8.87;4.60;;;;;;;13.50;83.67;101847.03;5039198;28;20221;-77
2023/10/04 07:39:15;;;;;;;7.30;3.50;;;;;;;13.60;84.90;101855.44;5055267;28;20197;-77
2023/10/04 07:41:53;;;;;;;7.83;3.10;;;;;;;13.71;83.61;101861.19;5036014;28;20363;-77
2023/10/04 07:44:22;;;;;;;5.33;3.10;;;;;;;13.80;83.00;101876.00;5053611;28;20676;-77
2023/10/04 07:46:58;;;;;;;4.77;2.33;;;;;;;13.88;83.77;101877.09;5036051;28;20288;-76
2023/10/04 07:49:29;;;;;;;8.70;2.50;;;;;;;13.95;85.17;101880.81;5035833;28;20267;-77
2023/10/04 07:51:59;;;;;;;5.93;2.30;;;;;;;14.01;83.72;101876.91;5035658;28;20201;-76
2023/10/04 07:54:34;;;;;;;3.93;2.00;;;;;;;14.06;82.52;101882.03;5049736;28;20235;-77
2023/10/04 07:57:09;;;;;;;5.57;2.00;;;;;;;14.09;82.95;101876.13;5034500;28;20693;-76
2023/10/04 07:59:41;;;;;;;3.43;2.00;;;;;;;14.11;80.25;101886.41;5037937;28;20225;-77
2023/10/04 08:02:11;;;;;;;3.93;2.00;;;;;;;14.10;79.71;101890.16;5056438;28;20196;-75
2023/10/04 08:04:45;;;;;;;6.10;2.20;;;;;;;14.10;81.25;101887.50;5035922;28;20321;-76
2023/10/04 08:07:19;;;;;;;3.30;1.90;;;;;;;14.12;80.63;101896.72;5052058;28;20197;-75
2023/10/04 08:09:58;;;;;;;4.07;2.00;;;;;;;14.14;80.80;101896.41;5026531;28;20229;-78
2023/10/04 08:12:30;;;;;;;4.30;2.07;;;;;;;14.17;83.51;101893.09;5042526;28;20197;-80
2023/10/04 08:14:58;;;;;;;3.67;1.90;;;;;;;14.19;81.43;101893.56;5053580;28;20667;-77
2023/10/04 08:17:27;;;;;;;3.90;1.97;;;;;;;14.21;80.78;101897.50;5039303;28;20256;-76
2023/10/04 08:20:04;;;;;;;4.60;1.90;;;;;;;14.25;81.96;101887.81;5038111;28;20708;-77
2023/10/04 08:22:35;;;;;;;3.93;1.93;;;;;;;14.31;80.14;101886.53;5040346;28;20218;-77
2023/10/04 08:25:08;;;;;;;5.50;2.20;;;;;;;14.35;81.97;101897.31;5035570;28;20244;-77
2023/10/04 08:27:41;;;;;;;4.53;2.23;;;;;;;14.34;80.30;101891.19;5055608;28;20249;-77
2023/10/04 08:30:20;;;;;;;4.57;2.03;;;;;;;14.35;78.95;101895.44;5037975;28;20226;-77
2023/10/04 08:32:49;;;;;;;5.03;1.90;;;;;;;14.39;80.96;101892.91;5054731;28;20206;-76
2023/10/04 08:35:28;;;;;;;4.20;2.20;;;;;;;14.41;80.89;101888.06;5035606;28;20654;-76
2023/10/04 08:38:12;;;;;;;5.30;1.90;;;;;;;14.45;81.69;101894.28;5038176;28;20684;-76
2023/10/04 08:41:08;;;;;;;7.87;2.00;;;;;;;14.49;78.66;101890.66;5039420;28;20241;-76
2023/10/04 08:43:46;;;;;;;7.13;2.50;;;;;;;14.61;78.54;101893.44;5040306;28;20195;-76
2023/10/04 08:46:23;;;;;;;3.47;2.03;;;;;;;14.70;80.93;101891.50;5056612;28;20217;-77
2023/10/04 08:49:06;;;;;;;3.77;1.80;;;;;;;14.80;78.68;101891.13;5035068;28;20208;-76
2023/10/04 08:51:50;;;;;;;4.50;1.83;;;;;;;14.89;79.44;101881.25;5053011;28;20280;-76
2023/10/04 08:54:25;;;;;;;3.33;1.67;;;;;;;14.98;79.55;101878.53;5053322;28;20206;-76
2023/10/04 08:57:14;;;;;;;7.03;2.07;;;;;;;15.02;77.68;101882.88;5032442;28;20308;-77
2023/10/04 08:59:49;;;;;;;8.17;2.10;;;;;;;15.07;79.08;101873.94;5046532;28;20249;-77
2023/10/04 09:02:16;;;;;;;5.07;1.97;;;;;;;15.06;78.06;101877.69;5045755;28;20236;-77
2023/10/04 09:04:47;;;;;;;4.93;2.20;;;;;;;15.08;76.47;101878.13;5025182;28;20933;-77
2023/10/04 09:07:14;;;;;;;4.17;1.80;;;;;;;15.12;76.96;101877.16;5047845;28;20996;-77
2023/10/04 09:09:45;;;;;;;4.33;1.90;;;;;;;15.21;78.88;101885.09;5044231;28;20231;-77
2023/10/04 09:12:13;;;;;;;4.43;2.00;;;;;;;15.31;77.23;101892.69;5047098;28;20194;-77
2023/10/04 09:14:43;;;;;;;4.17;2.00;;;;;;;15.36;76.47;101893.31;5026402;28;20394;-77
2023/10/04 09:17:24;;;;;;;3.00;1.83;;;;;;;15.41;75.28;101889.66;5033802;28;20220;-76
2023/10/04 09:19:51;;;;;;;5.53;2.57;;;;;;;15.44;75.84;101894.34;5037180;28;20230;-76
2023/10/04 09:22:37;;;;;;;3.03;2.07;;;;;;;15.45;76.42;101895.88;5053457;28;20201;-77
2023/10/04 09:25:09;;;;;;;3.90;1.80;;;;;;;15.46;73.43;101892.13;5033137;28;20208;-76
2023/10/04 09:27:38;;;;;;;5.50;2.20;;;;;;;15.46;75.88;101895.56;5051740;28;20734;-76
2023/10/04 09:30:25;;;;;;;4.77;1.80;;;;;;;15.48;75.90;101892.59;5038357;28;20251;-76
2023/10/04 09:32:55;;;;;;;3.70;1.70;;;;;;;15.47;75.01;101899.78;5056213;28;20202;-76
2023/10/04 09:35:44;;;;;;;7.60;2.20;;;;;;;15.45;73.81;101910.00;5053249;28;20225;-76
2023/10/04 09:38:21;;;;;;;5.10;1.90;;;;;;;15.42;73.43;101915.94;5040667;28;20313;-76
2023/10/04 09:40:55;;;;;;;6.23;2.40;;;;;;;15.48;73.87;101911.22;5057157;28;20224;-76
2023/10/04 09:43:52;;;;;;;7.80;2.10;;;;;;;15.52;73.76;101922.78;5040795;28;20766;-76
2023/10/04 09:46:29;;;;;;;4.20;2.27;;;;;;;15.59;76.07;101921.16;5043618;28;20216;-76
2023/10/04 09:49:06;;;;;;;5.77;2.07;;;;;;;15.63;74.76;101921.28;5040309;28;20206;-76
2023/10/04 09:51:39;;;;;;;4.27;2.00;;;;;;;15.69;73.88;101925.28;5054627;28;20221;-76
2023/10/04 09:54:06;;;;;;;3.97;1.90;;;;;;;15.78;74.53;101918.78;5041242;28;20196;-76
2023/10/04 09:56:41;;;;;;;4.37;2.10;;;;;;;15.83;73.11;101918.56;5055270;28;20802;-76
2023/10/04 09:59:11;;;;;;;7.63;2.17;;;;;;;15.91;72.18;101938.25;5054388;28;20200;-76
2023/10/04 10:01:38;;;;;;;6.50;2.20;;;;;;;15.96;72.75;101922.84;5055471;28;20248;-76
2023/10/04 10:04:16;;;;;;;5.40;2.03;;;;;;;15.99;71.73;101926.75;5055044;28;21265;-77
2023/10/04 10:06:52;;;;;;;3.20;2.00;;;;;;;16.04;73.14;101926.53;5035602;28;20212;-76
2023/10/04 10:09:24;;;;;;;5.57;2.00;;;;;;;16.11;72.17;101929.44;5053594;28;20282;-76
2023/10/04 10:11:53;;;;;;;7.63;2.40;;;;;;;16.11;71.09;101921.44;5054912;28;20910;-76
2023/10/04 10:14:22;;;;;;;3.83;2.10;;;;;;;16.16;72.42;101924.69;5057730;28;20685;-76
2023/10/04 10:16:54;;;;;;;4.93;2.10;;;;;;;16.16;70.25;101926.56;5037873;28;20216;-76
2023/10/04 10:19:26;;;;;;;3.43;1.73;;;;;;;16.26;72.46;101923.47;5053507;28;20237;-76
2023/10/04 10:22:08;;;;;;;5.60;2.17;;;;;;;16.30;69.61;101919.81;5053412;28;20580;-76
2023/10/04 10:24:48;;;;;;;4.03;1.80;;;;;;;16.38;72.19;101924.28;5036368;28;20205;-75
2023/10/04 10:27:22;;;;;;;4.50;2.00;;;;;;;16.45;70.39;101915.75;5056111;28;20197;-75
2023/10/04 10:29:54;;;;;;;7.00;2.30;;;;;;;16.46;71.17;101925.31;5052943;28;20229;-76
2023/10/04 10:32:24;;;;;;;5.93;2.17;;;;;;;16.44;71.73;101922.19;5054245;28;20652;-76
2023/10/04 10:34:52;;;;;;;3.80;1.70;;;;;;;16.44;70.08;101914.19;5036776;28;20211;-75
2023/10/04 10:37:23;;;;;;;6.77;2.10;;;;;;;16.49;70.82;101925.41;5051462;28;20233;-76
2023/10/04 10:39:51;;;;;;;7.23;2.13;;;;;;;16.53;67.62;101925.53;5054085;28;20558;-75
2023/10/04 10:42:18;;;;;;;6.90;2.03;;;;;;;16.61;68.78;101935.31;5032881;28;20210;-77
2023/10/04 10:44:46;;;;;;;5.70;1.83;;;;;;;16.66;69.93;101929.78;5042918;28;20239;-77
2023/10/04 10:47:15;;;;;;;3.07;1.57;;;;;;;16.65;68.96;101928.97;5041119;28;20878;-77
2023/10/04 10:49:59;;;;;;;10.30;2.47;;;;;;;16.70;72.96;101933.31;5042090;28;20251;-77
2023/10/04 10:52:34;;;;;;;5.70;2.03;;;;;;;16.67;67.46;101931.31;5025744;28;20826;-77
2023/10/04 10:55:05;;;;;;;2.47;1.50;;;;;;;16.70;71.74;101926.09;5041342;28;20691;-77
2023/10/04 10:57:33;;;;;;;4.17;1.97;;;;;;;16.70;69.75;101922.63;5050324;28;20217;-75
2023/10/04 11:00:07;;;;;;;5.10;1.53;;;;;;;16.66;68.08;101921.78;5052817;28;20222;-75
2023/10/04 11:02:35;;;;;;;4.17;1.90;;;;;;;16.64;67.62;101923.97;5036113;28;20210;-76
2023/10/04 11:05:01;;;;;;;3.43;1.83;;;;;;;16.67;68.80;101920.66;5037877;28;20844;-75
2023/10/04 11:07:32;;;;;;;6.20;1.93;;;;;;;16.72;68.38;101913.19;5029725;28;20222;-77
2023/10/04 11:10:01;;;;;;;4.60;1.90;;;;;;;16.81;70.29;101923.78;5024262;28;21383;-76
2023/10/04 11:12:27;;;;;;;5.67;1.90;;;;;;;16.86;67.68;101910.97;5024817;28;20207;-77
2023/10/04 11:14:57;;;;;;;4.87;1.93;;;;;;;16.87;67.90;101911.75;5040986;28;20798;-77
2023/10/04 11:17:23;;;;;;;5.10;2.20;;;;;;;16.87;65.89;101906.44;5041070;28;20229;-76
2023/10/04 11:19:51;;;;;;;6.23;2.10;;;;;;;16.87;67.37;101909.84;5040428;28;21115;-75
2023/10/04 11:22:20;;;;;;;2.67;1.50;;;;;;;16.88;68.23;101908.72;5043188;28;20194;-74
2023/10/04 11:24:50;;;;;;;6.70;1.80;;;;;;;16.92;67.50;101898.94;5040718;28;20219;-76
2023/10/04 11:27:22;;;;;;;4.33;1.70;;;;;;;16.99;66.48;101909.84;5040973;28;20232;-75
2023/10/04 11:29:52;;;;;;;2.90;1.53;;;;;;;17.06;66.40;101906.59;5042812;28;20612;-76
2023/10/04 11:32:18;;;;;;;4.90;2.10;;;;;;;17.13;67.48;101902.25;5025090;28;20206;-76
2023/10/04 11:34:49;;;;;;;4.83;1.70;;;;;;;17.14;66.55;101895.03;5043220;28;20281;-76
2023/10/04 11:37:19;;;;;;;9.10;1.90;;;;;;;17.15;65.82;101894.69;5024099;28;20652;-77
2023/10/04 11:39:46;;;;;;;5.00;1.73;;;;;;;17.13;65.04;101898.81;5042965;28;20214;-76